sensor_id;sensor_type;location;lat;lon;timestamp;P1;durP1;ratioP1;P2;durP2;ratioP2
18320;SDS011;54904;54.350;18.664;2023-08-21T00:02:16;1.95;;;1.85;;
18320;SDS011;54904;54.350;18.664;2023-08-21T00:04:43;1.75;;;1.65;;
18320;SDS011;54904;54.350;18.664;2023-08-21T00:07:10;1.67;;;1.60;;
18320;SDS011;54904;54.350;18.664;2023-08-21T00:09:37;1.90;;;1.80;;
18320;SDS011;54904;54.350;18.664;2023-08-21T00:12:05;2.03;;;1.88;;
18320;SDS011;54904;54.350;18.664;2023-08-21T00:14:33;1.60;;;1.50;;
18320;SDS011;54904;54.350;18.664;2023-08-21T00:17:01;1.52;;;1.50;;
18320;SDS011;54904;54.350;18.664;2023-08-21T00:19:29;1.90;;;1.80;;
18320;SDS011;54904;54.350;18.664;2023-08-21T00:21:56;1.90;;;1.80;;
18320;SDS011;54904;54.350;18.664;2023-08-21T00:24:23;1.60;;;1.50;;
18320;SDS011;54904;54.350;18.664;2023-08-21T00:26:50;1.80;;;1.70;;
18320;SDS011;54904;54.350;18.664;2023-08-21T00:29:18;1.30;;;1.30;;
18320;SDS011;54904;54.350;18.664;2023-08-21T00:31:45;1.40;;;1.40;;
18320;SDS011;54904;54.350;18.664;2023-08-21T00:34:14;1.58;;;1.58;;
18320;SDS011;54904;54.350;18.664;2023-08-21T00:36:41;2.10;;;2.00;;
18320;SDS011;54904;54.350;18.664;2023-08-21T00:39:08;1.58;;;1.58;;
18320;SDS011;54904;54.350;18.664;2023-08-21T00:41:35;1.83;;;1.73;;
18320;SDS011;54904;54.350;18.664;2023-08-21T00:44:02;1.50;;;1.50;;
18320;SDS011;54904;54.350;18.664;2023-08-21T00:46:30;1.30;;;1.30;;
18320;SDS011;54904;54.350;18.664;2023-08-21T00:48:58;1.50;;;1.40;;
18320;SDS011;54904;54.350;18.664;2023-08-21T00:51:27;1.70;;;1.60;;
18320;SDS011;54904;54.350;18.664;2023-08-21T00:53:55;1.30;;;1.30;;
18320;SDS011;54904;54.350;18.664;2023-08-21T00:56:23;1.50;;;1.50;;
18320;SDS011;54904;54.350;18.664;2023-08-21T00:58:51;1.60;;;1.60;;
18320;SDS011;54904;54.350;18.664;2023-08-21T01:03:59;1.20;;;1.20;;
18320;SDS011;54904;54.350;18.664;2023-08-21T01:06:28;1.20;;;1.20;;
18320;SDS011;54904;54.350;18.664;2023-08-21T01:08:57;1.45;;;1.38;;
18320;SDS011;54904;54.350;18.664;2023-08-21T01:11:31;1.38;;;1.38;;
18320;SDS011;54904;54.350;18.664;2023-08-21T01:14:09;1.10;;;1.10;;
18320;SDS011;54904;54.350;18.664;2023-08-21T01:16:43;1.35;;;1.30;;
18320;SDS011;54904;54.350;18.664;2023-08-21T01:19:14;1.45;;;1.45;;
18320;SDS011;54904;54.350;18.664;2023-08-21T01:21:52;1.35;;;1.35;;
18320;SDS011;54904;54.350;18.664;2023-08-21T01:24:21;1.30;;;1.30;;
18320;SDS011;54904;54.350;18.664;2023-08-21T01:26:48;1.60;;;1.50;;
18320;SDS011;54904;54.350;18.664;2023-08-21T01:29:15;1.45;;;1.35;;
18320;SDS011;54904;54.350;18.664;2023-08-21T01:31:42;1.40;;;1.40;;
18320;SDS011;54904;54.350;18.664;2023-08-21T01:34:16;1.40;;;1.40;;
18320;SDS011;54904;54.350;18.664;2023-08-21T01:36:43;1.70;;;1.60;;
18320;SDS011;54904;54.350;18.664;2023-08-21T01:39:12;1.63;;;1.50;;
18320;SDS011;54904;54.350;18.664;2023-08-21T01:41:41;1.88;;;1.60;;
18320;SDS011;54904;54.350;18.664;2023-08-21T01:44:09;1.60;;;1.50;;
18320;SDS011;54904;54.350;18.664;2023-08-21T01:46:36;1.30;;;1.30;;
18320;SDS011;54904;54.350;18.664;2023-08-21T01:49:03;1.17;;;1.17;;
18320;SDS011;54904;54.350;18.664;2023-08-21T01:51:30;1.60;;;1.50;;
18320;SDS011;54904;54.350;18.664;2023-08-21T01:53:57;1.65;;;1.55;;
18320;SDS011;54904;54.350;18.664;2023-08-21T01:56:24;1.20;;;1.20;;
18320;SDS011;54904;54.350;18.664;2023-08-21T01:58:52;1.38;;;1.35;;
18320;SDS011;54904;54.350;18.664;2023-08-21T02:01:19;1.10;;;1.10;;
18320;SDS011;54904;54.350;18.664;2023-08-21T02:03:46;1.40;;;1.40;;
18320;SDS011;54904;54.350;18.664;2023-08-21T02:06:13;1.10;;;1.10;;
18320;SDS011;54904;54.350;18.664;2023-08-21T02:08:40;1.35;;;1.33;;
18320;SDS011;54904;54.350;18.664;2023-08-21T02:11:08;1.60;;;1.50;;
18320;SDS011;54904;54.350;18.664;2023-08-21T02:13:35;1.60;;;1.50;;
18320;SDS011;54904;54.350;18.664;2023-08-21T02:16:03;1.23;;;1.23;;
18320;SDS011;54904;54.350;18.664;2023-08-21T02:18:30;1.60;;;1.50;;
18320;SDS011;54904;54.350;18.664;2023-08-21T02:20:57;1.33;;;1.33;;
18320;SDS011;54904;54.350;18.664;2023-08-21T02:23:26;1.67;;;1.58;;
18320;SDS011;54904;54.350;18.664;2023-08-21T02:25:54;1.55;;;1.50;;
18320;SDS011;54904;54.350;18.664;2023-08-21T02:28:21;1.98;;;1.88;;
18320;SDS011;54904;54.350;18.664;2023-08-21T02:30:48;1.95;;;1.85;;
18320;SDS011;54904;54.350;18.664;2023-08-21T02:33:17;1.90;;;1.80;;
18320;SDS011;54904;54.350;18.664;2023-08-21T02:35:44;1.70;;;1.60;;
18320;SDS011;54904;54.350;18.664;2023-08-21T02:38:11;1.50;;;1.45;;
18320;SDS011;54904;54.350;18.664;2023-08-21T02:40:38;1.65;;;1.55;;
18320;SDS011;54904;54.350;18.664;2023-08-21T02:43:05;1.52;;;1.42;;
18320;SDS011;54904;54.350;18.664;2023-08-21T02:45:32;1.67;;;1.58;;
18320;SDS011;54904;54.350;18.664;2023-08-21T02:47:59;1.80;;;1.70;;
18320;SDS011;54904;54.350;18.664;2023-08-21T02:50:27;1.58;;;1.48;;
18320;SDS011;54904;54.350;18.664;2023-08-21T02:52:54;1.38;;;1.38;;
18320;SDS011;54904;54.350;18.664;2023-08-21T02:55:21;1.67;;;1.60;;
18320;SDS011;54904;54.350;18.664;2023-08-21T02:57:48;1.33;;;1.23;;
18320;SDS011;54904;54.350;18.664;2023-08-21T03:00:16;1.40;;;1.30;;
18320;SDS011;54904;54.350;18.664;2023-08-21T03:02:43;1.60;;;1.50;;
18320;SDS011;54904;54.350;18.664;2023-08-21T03:05:10;1.73;;;1.30;;
18320;SDS011;54904;54.350;18.664;2023-08-21T03:07:39;1.55;;;1.50;;
18320;SDS011;54904;54.350;18.664;2023-08-21T03:10:07;1.50;;;1.40;;
18320;SDS011;54904;54.350;18.664;2023-08-21T03:12:35;1.40;;;1.40;;
18320;SDS011;54904;54.350;18.664;2023-08-21T03:15:02;2.47;;;1.38;;
18320;SDS011;54904;54.350;18.664;2023-08-21T03:17:30;1.58;;;1.48;;
18320;SDS011;54904;54.350;18.664;2023-08-21T03:19:57;1.73;;;1.48;;
18320;SDS011;54904;54.350;18.664;2023-08-21T03:22:25;1.85;;;1.75;;
18320;SDS011;54904;54.350;18.664;2023-08-21T03:24:53;3.40;;;1.58;;
18320;SDS011;54904;54.350;18.664;2023-08-21T03:27:22;1.17;;;1.13;;
18320;SDS011;54904;54.350;18.664;2023-08-21T03:29:50;1.25;;;1.25;;
18320;SDS011;54904;54.350;18.664;2023-08-21T03:32:17;1.17;;;1.17;;
18320;SDS011;54904;54.350;18.664;2023-08-21T03:34:46;1.13;;;1.13;;
18320;SDS011;54904;54.350;18.664;2023-08-21T03:37:13;1.10;;;1.10;;
18320;SDS011;54904;54.350;18.664;2023-08-21T03:39:40;1.00;;;1.00;;
18320;SDS011;54904;54.350;18.664;2023-08-21T03:42:11;1.30;;;1.25;;
18320;SDS011;54904;54.350;18.664;2023-08-21T03:44:39;1.20;;;1.20;;
18320;SDS011;54904;54.350;18.664;2023-08-21T03:47:06;1.05;;;1.02;;
18320;SDS011;54904;54.350;18.664;2023-08-21T03:49:42;0.98;;;0.98;;
18320;SDS011;54904;54.350;18.664;2023-08-21T03:52:09;0.90;;;0.90;;
18320;SDS011;54904;54.350;18.664;2023-08-21T03:54:36;1.10;;;1.10;;
18320;SDS011;54904;54.350;18.664;2023-08-21T03:57:03;1.00;;;0.90;;
18320;SDS011;54904;54.350;18.664;2023-08-21T03:59:32;0.90;;;0.90;;
18320;SDS011;54904;54.350;18.664;2023-08-21T04:01:59;0.80;;;0.80;;
18320;SDS011;54904;54.350;18.664;2023-08-21T04:04:27;0.80;;;0.80;;
18320;SDS011;54904;54.350;18.664;2023-08-21T04:06:54;0.82;;;0.82;;
18320;SDS011;54904;54.350;18.664;2023-08-21T04:09:21;1.35;;;0.80;;
18320;SDS011;54904;54.350;18.664;2023-08-21T04:11:49;1.05;;;0.95;;
18320;SDS011;54904;54.350;18.664;2023-08-21T04:14:16;1.17;;;1.10;;
18320;SDS011;54904;54.350;18.664;2023-08-21T04:16:45;1.00;;;0.93;;
18320;SDS011;54904;54.350;18.664;2023-08-21T04:19:12;0.90;;;0.90;;
18320;SDS011;54904;54.350;18.664;2023-08-21T04:21:39;1.05;;;1.05;;
18320;SDS011;54904;54.350;18.664;2023-08-21T04:24:06;1.05;;;1.05;;
18320;SDS011;54904;54.350;18.664;2023-08-21T04:26:33;1.25;;;1.15;;
18320;SDS011;54904;54.350;18.664;2023-08-21T04:29:00;1.38;;;1.00;;
18320;SDS011;54904;54.350;18.664;2023-08-21T04:31:28;1.20;;;1.10;;
18320;SDS011;54904;54.350;18.664;2023-08-21T04:33:57;1.30;;;1.20;;
18320;SDS011;54904;54.350;18.664;2023-08-21T04:36:24;0.90;;;0.90;;
18320;SDS011;54904;54.350;18.664;2023-08-21T04:38:51;0.80;;;0.80;;
18320;SDS011;54904;54.350;18.664;2023-08-21T04:41:19;1.00;;;1.00;;
18320;SDS011;54904;54.350;18.664;2023-08-21T04:43:46;0.98;;;0.98;;
18320;SDS011;54904;54.350;18.664;2023-08-21T04:46:13;1.15;;;1.08;;
18320;SDS011;54904;54.350;18.664;2023-08-21T04:48:43;1.40;;;1.30;;
18320;SDS011;54904;54.350;18.664;2023-08-21T04:51:13;1.20;;;1.20;;
18320;SDS011;54904;54.350;18.664;2023-08-21T04:53:40;1.38;;;1.33;;
18320;SDS011;54904;54.350;18.664;2023-08-21T04:56:12;1.40;;;1.30;;
18320;SDS011;54904;54.350;18.664;2023-08-21T04:58:39;1.10;;;1.10;;
18320;SDS011;54904;54.350;18.664;2023-08-21T05:01:07;1.85;;;1.10;;
18320;SDS011;54904;54.350;18.664;2023-08-21T05:03:38;1.40;;;1.30;;
18320;SDS011;54904;54.350;18.664;2023-08-21T05:06:06;1.10;;;1.10;;
18320;SDS011;54904;54.350;18.664;2023-08-21T05:08:35;1.13;;;1.13;;
18320;SDS011;54904;54.350;18.664;2023-08-21T05:11:05;1.00;;;1.00;;
18320;SDS011;54904;54.350;18.664;2023-08-21T05:13:35;1.33;;;1.25;;
18320;SDS011;54904;54.350;18.664;2023-08-21T05:16:04;1.55;;;1.17;;
18320;SDS011;54904;54.350;18.664;2023-08-21T05:18:35;1.08;;;0.98;;
18320;SDS011;54904;54.350;18.664;2023-08-21T05:21:03;1.30;;;1.20;;
18320;SDS011;54904;54.350;18.664;2023-08-21T05:23:30;1.00;;;1.00;;
18320;SDS011;54904;54.350;18.664;2023-08-21T05:26:05;1.30;;;1.20;;
18320;SDS011;54904;54.350;18.664;2023-08-21T05:28:33;1.13;;;1.08;;
18320;SDS011;54904;54.350;18.664;2023-08-21T05:31:00;1.20;;;1.10;;
18320;SDS011;54904;54.350;18.664;2023-08-21T05:33:34;1.48;;;0.98;;
18320;SDS011;54904;54.350;18.664;2023-08-21T05:36:01;1.40;;;0.95;;
18320;SDS011;54904;54.350;18.664;2023-08-21T05:38:28;0.93;;;0.93;;
18320;SDS011;54904;54.350;18.664;2023-08-21T05:40:56;1.83;;;1.33;;
18320;SDS011;54904;54.350;18.664;2023-08-21T05:43:24;1.33;;;1.20;;
18320;SDS011;54904;54.350;18.664;2023-08-21T05:45:52;1.45;;;1.35;;
18320;SDS011;54904;54.350;18.664;2023-08-21T05:48:20;1.33;;;1.23;;
18320;SDS011;54904;54.350;18.664;2023-08-21T05:50:50;1.30;;;1.20;;
18320;SDS011;54904;54.350;18.664;2023-08-21T05:53:17;1.10;;;1.00;;
18320;SDS011;54904;54.350;18.664;2023-08-21T05:55:44;1.30;;;1.20;;
18320;SDS011;54904;54.350;18.664;2023-08-21T05:58:11;1.35;;;1.20;;
18320;SDS011;54904;54.350;18.664;2023-08-21T06:00:40;1.50;;;1.02;;
18320;SDS011;54904;54.350;18.664;2023-08-21T06:03:07;1.35;;;1.20;;
18320;SDS011;54904;54.350;18.664;2023-08-21T06:06:00;1.30;;;0.93;;
18320;SDS011;54904;54.350;18.664;2023-08-21T06:08:28;1.10;;;1.10;;
18320;SDS011;54904;54.350;18.664;2023-08-21T06:10:55;1.10;;;1.10;;
18320;SDS011;54904;54.350;18.664;2023-08-21T06:13:22;1.27;;;1.00;;
18320;SDS011;54904;54.350;18.664;2023-08-21T06:15:53;3.03;;;1.00;;
18320;SDS011;54904;54.350;18.664;2023-08-21T06:18:22;1.00;;;1.00;;
18320;SDS011;54904;54.350;18.664;2023-08-21T06:20:49;1.05;;;1.05;;
18320;SDS011;54904;54.350;18.664;2023-08-21T06:23:18;0.93;;;0.93;;
18320;SDS011;54904;54.350;18.664;2023-08-21T06:25:47;1.25;;;1.15;;
18320;SDS011;54904;54.350;18.664;2023-08-21T06:28:14;1.08;;;1.08;;
18320;SDS011;54904;54.350;18.664;2023-08-21T06:30:42;1.27;;;1.05;;
18320;SDS011;54904;54.350;18.664;2023-08-21T06:33:11;1.50;;;1.10;;
18320;SDS011;54904;54.350;18.664;2023-08-21T06:35:38;1.20;;;1.10;;
18320;SDS011;54904;54.350;18.664;2023-08-21T06:38:06;0.90;;;0.90;;
18320;SDS011;54904;54.350;18.664;2023-08-21T06:40:33;2.97;;;1.35;;
18320;SDS011;54904;54.350;18.664;2023-08-21T06:43:00;2.15;;;1.25;;
18320;SDS011;54904;54.350;18.664;2023-08-21T06:45:32;1.27;;;1.10;;
18320;SDS011;54904;54.350;18.664;2023-08-21T06:48:02;1.20;;;1.10;;
18320;SDS011;54904;54.350;18.664;2023-08-21T06:50:31;1.00;;;0.93;;
18320;SDS011;54904;54.350;18.664;2023-08-21T06:52:58;1.13;;;1.10;;
18320;SDS011;54904;54.350;18.664;2023-08-21T06:55:25;1.25;;;1.10;;
18320;SDS011;54904;54.350;18.664;2023-08-21T06:57:52;1.30;;;1.20;;
18320;SDS011;54904;54.350;18.664;2023-08-21T07:00:19;1.85;;;1.23;;
18320;SDS011;54904;54.350;18.664;2023-08-21T07:02:47;0.90;;;0.90;;
18320;SDS011;54904;54.350;18.664;2023-08-21T07:05:14;1.05;;;1.00;;
18320;SDS011;54904;54.350;18.664;2023-08-21T07:07:42;1.00;;;1.00;;
18320;SDS011;54904;54.350;18.664;2023-08-21T07:10:09;1.75;;;1.30;;
18320;SDS011;54904;54.350;18.664;2023-08-21T07:12:37;1.00;;;1.00;;
18320;SDS011;54904;54.350;18.664;2023-08-21T07:15:04;2.58;;;1.80;;
18320;SDS011;54904;54.350;18.664;2023-08-21T07:17:32;2.85;;;1.58;;
18320;SDS011;54904;54.350;18.664;2023-08-21T07:19:59;2.45;;;1.40;;
18320;SDS011;54904;54.350;18.664;2023-08-21T07:22:26;1.35;;;1.27;;
18320;SDS011;54904;54.350;18.664;2023-08-21T07:24:55;1.35;;;1.25;;
18320;SDS011;54904;54.350;18.664;2023-08-21T07:27:22;1.77;;;1.67;;
18320;SDS011;54904;54.350;18.664;2023-08-21T07:29:49;0.93;;;0.93;;
18320;SDS011;54904;54.350;18.664;2023-08-21T07:32:16;1.10;;;1.00;;
18320;SDS011;54904;54.350;18.664;2023-08-21T07:34:43;1.63;;;1.20;;
18320;SDS011;54904;54.350;18.664;2023-08-21T07:37:11;0.80;;;0.80;;
18320;SDS011;54904;54.350;18.664;2023-08-21T07:39:38;1.10;;;1.05;;
18320;SDS011;54904;54.350;18.664;2023-08-21T07:42:06;1.20;;;1.20;;
18320;SDS011;54904;54.350;18.664;2023-08-21T07:44:33;1.23;;;1.20;;
18320;SDS011;54904;54.350;18.664;2023-08-21T07:47:00;0.77;;;0.77;;
18320;SDS011;54904;54.350;18.664;2023-08-21T07:49:27;0.88;;;0.88;;
18320;SDS011;54904;54.350;18.664;2023-08-21T07:51:55;8.40;;;1.15;;
18320;SDS011;54904;54.350;18.664;2023-08-21T07:54:22;1.20;;;1.02;;
18320;SDS011;54904;54.350;18.664;2023-08-21T07:56:49;1.65;;;1.30;;
18320;SDS011;54904;54.350;18.664;2023-08-21T07:59:17;1.83;;;1.40;;
18320;SDS011;54904;54.350;18.664;2023-08-21T08:01:45;1.60;;;1.00;;
18320;SDS011;54904;54.350;18.664;2023-08-21T08:04:12;0.90;;;0.90;;
18320;SDS011;54904;54.350;18.664;2023-08-21T08:06:39;1.90;;;0.90;;
18320;SDS011;54904;54.350;18.664;2023-08-21T08:09:07;0.90;;;0.90;;
18320;SDS011;54904;54.350;18.664;2023-08-21T08:11:34;1.08;;;1.00;;
18320;SDS011;54904;54.350;18.664;2023-08-21T08:14:01;0.98;;;0.80;;
18320;SDS011;54904;54.350;18.664;2023-08-21T08:16:30;0.85;;;0.80;;
18320;SDS011;54904;54.350;18.664;2023-08-21T08:18:57;0.80;;;0.80;;
18320;SDS011;54904;54.350;18.664;2023-08-21T08:21:24;0.90;;;0.90;;
18320;SDS011;54904;54.350;18.664;2023-08-21T08:23:51;1.48;;;0.77;;
18320;SDS011;54904;54.350;18.664;2023-08-21T08:26:18;2.03;;;1.00;;
18320;SDS011;54904;54.350;18.664;2023-08-21T08:28:45;0.82;;;0.82;;
18320;SDS011;54904;54.350;18.664;2023-08-21T08:31:15;3.22;;;1.00;;
18320;SDS011;54904;54.350;18.664;2023-08-21T08:33:44;1.23;;;1.02;;
18320;SDS011;54904;54.350;18.664;2023-08-21T08:36:13;0.93;;;0.80;;
18320;SDS011;54904;54.350;18.664;2023-08-21T08:38:40;1.45;;;0.95;;
18320;SDS011;54904;54.350;18.664;2023-08-21T08:41:10;1.52;;;0.93;;
18320;SDS011;54904;54.350;18.664;2023-08-21T08:43:43;0.90;;;0.90;;
18320;SDS011;54904;54.350;18.664;2023-08-21T08:46:11;0.85;;;0.73;;
18320;SDS011;54904;54.350;18.664;2023-08-21T08:48:38;1.58;;;0.90;;
18320;SDS011;54904;54.350;18.664;2023-08-21T08:51:07;1.40;;;1.00;;
18320;SDS011;54904;54.350;18.664;2023-08-21T08:53:34;0.80;;;0.80;;
18320;SDS011;54904;54.350;18.664;2023-08-21T08:56:03;0.98;;;0.98;;
18320;SDS011;54904;54.350;18.664;2023-08-21T08:58:30;1.05;;;1.02;;
18320;SDS011;54904;54.350;18.664;2023-08-21T09:00:58;1.00;;;0.90;;
18320;SDS011;54904;54.350;18.664;2023-08-21T09:03:25;2.40;;;1.52;;
18320;SDS011;54904;54.350;18.664;2023-08-21T09:05:53;2.30;;;1.15;;
18320;SDS011;54904;54.350;18.664;2023-08-21T09:08:21;1.05;;;1.00;;
18320;SDS011;54904;54.350;18.664;2023-08-21T09:10:48;1.38;;;1.17;;
18320;SDS011;54904;54.350;18.664;2023-08-21T09:13:16;1.13;;;1.02;;
18320;SDS011;54904;54.350;18.664;2023-08-21T09:15:45;1.20;;;0.93;;
18320;SDS011;54904;54.350;18.664;2023-08-21T09:18:13;1.23;;;0.90;;
18320;SDS011;54904;54.350;18.664;2023-08-21T09:20:41;1.02;;;0.93;;
18320;SDS011;54904;54.350;18.664;2023-08-21T09:23:09;1.10;;;1.00;;
18320;SDS011;54904;54.350;18.664;2023-08-21T09:25:41;0.88;;;0.80;;
18320;SDS011;54904;54.350;18.664;2023-08-21T09:28:12;0.88;;;0.70;;
18320;SDS011;54904;54.350;18.664;2023-08-21T09:30:46;1.65;;;1.08;;
18320;SDS011;54904;54.350;18.664;2023-08-21T09:33:16;1.15;;;1.05;;
18320;SDS011;54904;54.350;18.664;2023-08-21T09:35:44;1.17;;;1.08;;
18320;SDS011;54904;54.350;18.664;2023-08-21T09:38:12;1.30;;;1.20;;
18320;SDS011;54904;54.350;18.664;2023-08-21T09:40:39;0.85;;;0.85;;
18320;SDS011;54904;54.350;18.664;2023-08-21T09:43:09;1.80;;;0.90;;
18320;SDS011;54904;54.350;18.664;2023-08-21T09:45:37;1.25;;;1.10;;
18320;SDS011;54904;54.350;18.664;2023-08-21T09:48:05;0.70;;;0.70;;
18320;SDS011;54904;54.350;18.664;2023-08-21T09:50:33;0.98;;;0.82;;
18320;SDS011;54904;54.350;18.664;2023-08-21T09:53:01;1.00;;;1.00;;
18320;SDS011;54904;54.350;18.664;2023-08-21T09:55:30;0.80;;;0.80;;
18320;SDS011;54904;54.350;18.664;2023-08-21T09:58:00;1.00;;;1.00;;
18320;SDS011;54904;54.350;18.664;2023-08-21T10:00:31;1.10;;;1.00;;
18320;SDS011;54904;54.350;18.664;2023-08-21T10:03:01;1.63;;;1.10;;
18320;SDS011;54904;54.350;18.664;2023-08-21T10:05:29;1.27;;;0.85;;
18320;SDS011;54904;54.350;18.664;2023-08-21T10:07:58;0.82;;;0.80;;
18320;SDS011;54904;54.350;18.664;2023-08-21T10:10:28;0.73;;;0.73;;
18320;SDS011;54904;54.350;18.664;2023-08-21T10:12:57;0.70;;;0.70;;
18320;SDS011;54904;54.350;18.664;2023-08-21T10:15:26;0.80;;;0.80;;
18320;SDS011;54904;54.350;18.664;2023-08-21T10:17:54;0.80;;;0.80;;
18320;SDS011;54904;54.350;18.664;2023-08-21T10:20:24;1.13;;;1.00;;
18320;SDS011;54904;54.350;18.664;2023-08-21T10:22:52;1.10;;;0.98;;
18320;SDS011;54904;54.350;18.664;2023-08-21T10:25:21;1.15;;;1.00;;
18320;SDS011;54904;54.350;18.664;2023-08-21T10:27:51;1.45;;;0.93;;
18320;SDS011;54904;54.350;18.664;2023-08-21T10:30:20;0.85;;;0.85;;
18320;SDS011;54904;54.350;18.664;2023-08-21T10:32:50;0.90;;;0.90;;
18320;SDS011;54904;54.350;18.664;2023-08-21T10:35:18;0.90;;;0.90;;
18320;SDS011;54904;54.350;18.664;2023-08-21T10:38:05;1.40;;;1.00;;
18320;SDS011;54904;54.350;18.664;2023-08-21T10:40:33;2.60;;;1.00;;
18320;SDS011;54904;54.350;18.664;2023-08-21T10:43:01;1.00;;;0.93;;
18320;SDS011;54904;54.350;18.664;2023-08-21T10:45:28;0.90;;;0.90;;
18320;SDS011;54904;54.350;18.664;2023-08-21T10:47:58;0.75;;;0.75;;
18320;SDS011;54904;54.350;18.664;2023-08-21T10:50:26;1.00;;;0.90;;
18320;SDS011;54904;54.350;18.664;2023-08-21T10:52:53;1.05;;;1.00;;
18320;SDS011;54904;54.350;18.664;2023-08-21T10:55:20;0.80;;;0.80;;
18320;SDS011;54904;54.350;18.664;2023-08-21T10:57:48;0.70;;;0.70;;
18320;SDS011;54904;54.350;18.664;2023-08-21T11:00:16;0.70;;;0.70;;
18320;SDS011;54904;54.350;18.664;2023-08-21T11:02:44;0.85;;;0.85;;
18320;SDS011;54904;54.350;18.664;2023-08-21T11:05:14;0.70;;;0.70;;
18320;SDS011;54904;54.350;18.664;2023-08-21T11:07:42;1.23;;;0.70;;
18320;SDS011;54904;54.350;18.664;2023-08-21T11:10:11;0.60;;;0.60;;
18320;SDS011;54904;54.350;18.664;2023-08-21T11:12:47;0.70;;;0.70;;
18320;SDS011;54904;54.350;18.664;2023-08-21T11:15:16;0.75;;;0.75;;
18320;SDS011;54904;54.350;18.664;2023-08-21T11:17:50;0.95;;;0.60;;
18320;SDS011;54904;54.350;18.664;2023-08-21T11:20:19;1.23;;;0.80;;
18320;SDS011;54904;54.350;18.664;2023-08-21T11:22:47;0.82;;;0.82;;
18320;SDS011;54904;54.350;18.664;2023-08-21T11:25:14;0.70;;;0.70;;
18320;SDS011;54904;54.350;18.664;2023-08-21T11:27:42;1.30;;;0.80;;
18320;SDS011;54904;54.350;18.664;2023-08-21T11:30:10;1.23;;;0.88;;
